SKVV/VVC METAR and TAF weather

Enter ICAO airport designator
Station Type Date Time Source
SKVV METAR 2020/02/16 19:00 UTC NOAA

SKVV 161900Z 12005KT 9000 SCT023 34/19 A2984 RMK/HZ


Station Type Date Time Source
SKVV Decoded METAR 2020/02/16 19:00 UTC NOAA

Villavicencio / Vanguardia, Colombia (SKVV) 04-10N 073-37W 431M
Feb 16, 2020 - 02:00 PM EST / 2020.02.16 1900 UTC
Wind: from the ESE (120 degrees) at 6 MPH (5 KT):0
Visibility: 5 mile(s):0
Sky conditions: partly cloudy
Temperature: 93 F (34 C)
Heat index: 95.9 F (35.5 C):1
Dew Point: 66 F (19 C)
Relative Humidity: 41%
Pressure (altimeter): 29.84 in. Hg (1010 hPa)
ob: SKVV 161900Z 12005KT 9000 SCT023 34/19 A2984 RMK/HZ
cycle: 19

Station Type Date Time Source
SKVV TAF UTC NOAA

Error!

Example: see airport list